sensor_id;sensor_type;location;lat;lon;timestamp;pressure;altitude;pressure_sealevel;temperature;humidity
77171;BME280;66144;50.020;14.422;2023-07-29T00:01:49;98344.38;;;20.48;72.58
77171;BME280;66144;50.020;14.422;2023-07-29T00:04:15;98340.75;;;20.53;72.50
77171;BME280;66144;50.020;14.422;2023-07-29T00:06:41;98340.91;;;20.56;72.19
77171;BME280;66144;50.020;14.422;2023-07-29T00:09:06;98339.59;;;20.62;72.23
77171;BME280;66144;50.020;14.422;2023-07-29T00:11:32;98334.75;;;20.64;72.28
77171;BME280;66144;50.020;14.422;2023-07-29T00:14:00;98333.78;;;20.69;71.77
77171;BME280;66144;50.020;14.422;2023-07-29T00:16:25;98326.13;;;20.67;72.70
77171;BME280;66144;50.020;14.422;2023-07-29T00:18:51;98328.63;;;20.73;71.76
77171;BME280;66144;50.020;14.422;2023-07-29T00:21:17;98327.50;;;20.74;71.49
77171;BME280;66144;50.020;14.422;2023-07-29T00:23:42;98332.19;;;20.77;72.08
77171;BME280;66144;50.020;14.422;2023-07-29T00:26:07;98328.84;;;20.80;72.52
77171;BME280;66144;50.020;14.422;2023-07-29T00:28:33;98334.16;;;20.80;71.71
77171;BME280;66144;50.020;14.422;2023-07-29T00:30:58;98326.00;;;20.85;71.69
77171;BME280;66144;50.020;14.422;2023-07-29T00:33:24;98321.03;;;20.83;71.76
77171;BME280;66144;50.020;14.422;2023-07-29T00:35:49;98327.56;;;20.86;71.63
77171;BME280;66144;50.020;14.422;2023-07-29T00:38:15;98322.25;;;20.86;71.66
77171;BME280;66144;50.020;14.422;2023-07-29T00:40:40;98319.59;;;20.86;71.63
77171;BME280;66144;50.020;14.422;2023-07-29T00:43:06;98323.03;;;20.86;71.97
77171;BME280;66144;50.020;14.422;2023-07-29T00:45:32;98320.72;;;20.85;71.45
77171;BME280;66144;50.020;14.422;2023-07-29T00:47:59;98332.22;;;20.89;71.94
77171;BME280;66144;50.020;14.422;2023-07-29T00:50:25;98323.81;;;20.87;72.43
77171;BME280;66144;50.020;14.422;2023-07-29T00:52:53;98327.13;;;20.84;72.11
77171;BME280;66144;50.020;14.422;2023-07-29T00:55:19;98326.88;;;20.77;72.38
77171;BME280;66144;50.020;14.422;2023-07-29T00:57:44;98334.16;;;20.80;72.55
77171;BME280;66144;50.020;14.422;2023-07-29T01:00:14;98329.06;;;20.75;72.90
77171;BME280;66144;50.020;14.422;2023-07-29T01:02:39;98335.47;;;20.74;72.76
77171;BME280;66144;50.020;14.422;2023-07-29T01:05:05;98333.78;;;20.69;72.79
77171;BME280;66144;50.020;14.422;2023-07-29T01:08:00;98342.97;;;20.72;72.86
77171;BME280;66144;50.020;14.422;2023-07-29T01:10:58;98341.41;;;20.71;72.70
77171;BME280;66144;50.020;14.422;2023-07-29T01:13:42;98328.34;;;20.65;73.01
77171;BME280;66144;50.020;14.422;2023-07-29T01:16:20;98336.28;;;20.65;73.41
77171;BME280;66144;50.020;14.422;2023-07-29T01:18:49;98332.09;;;20.64;73.38
77171;BME280;66144;50.020;14.422;2023-07-29T01:21:18;98332.88;;;20.65;73.33
77171;BME280;66144;50.020;14.422;2023-07-29T01:23:44;98327.41;;;20.61;73.45
77171;BME280;66144;50.020;14.422;2023-07-29T01:26:10;98331.63;;;20.62;73.50
77171;BME280;66144;50.020;14.422;2023-07-29T01:28:35;98333.19;;;20.63;73.41
77171;BME280;66144;50.020;14.422;2023-07-29T01:31:01;98324.75;;;20.61;73.61
77171;BME280;66144;50.020;14.422;2023-07-29T01:33:33;98322.44;;;20.60;73.28
77171;BME280;66144;50.020;14.422;2023-07-29T01:36:10;98322.63;;;20.55;74.32
77171;BME280;66144;50.020;14.422;2023-07-29T01:38:38;98324.50;;;20.54;73.81
77171;BME280;66144;50.020;14.422;2023-07-29T01:41:06;98328.44;;;20.48;74.07
77171;BME280;66144;50.020;14.422;2023-07-29T01:43:33;98326.88;;;20.47;74.27
77171;BME280;66144;50.020;14.422;2023-07-29T01:46:00;98325.34;;;20.46;74.40
77171;BME280;66144;50.020;14.422;2023-07-29T01:48:25;98328.44;;;20.48;74.21
77171;BME280;66144;50.020;14.422;2023-07-29T01:50:52;98326.13;;;20.47;74.60
77171;BME280;66144;50.020;14.422;2023-07-29T01:53:18;98321.91;;;20.46;74.16
77171;BME280;66144;50.020;14.422;2023-07-29T01:55:43;98320.22;;;20.41;74.64
77171;BME280;66144;50.020;14.422;2023-07-29T01:58:10;98324.31;;;20.39;74.93
77171;BME280;66144;50.020;14.422;2023-07-29T02:00:35;98328.50;;;20.40;74.66
77171;BME280;66144;50.020;14.422;2023-07-29T02:03:01;98328.16;;;20.41;74.27
77171;BME280;66144;50.020;14.422;2023-07-29T02:05:26;98328.16;;;20.41;74.54
77171;BME280;66144;50.020;14.422;2023-07-29T02:07:51;98327.06;;;20.42;74.55
77171;BME280;66144;50.020;14.422;2023-07-29T02:10:17;98328.34;;;20.36;75.05
77171;BME280;66144;50.020;14.422;2023-07-29T02:12:42;98330.22;;;20.35;74.80
77171;BME280;66144;50.020;14.422;2023-07-29T02:15:08;98333.03;;;20.39;74.58
77171;BME280;66144;50.020;14.422;2023-07-29T02:17:34;98320.88;;;20.38;74.88
77171;BME280;66144;50.020;14.422;2023-07-29T02:20:00;98329.94;;;20.37;75.09
77171;BME280;66144;50.020;14.422;2023-07-29T02:22:25;98335.06;;;20.33;74.81
77171;BME280;66144;50.020;14.422;2023-07-29T02:24:51;98333.81;;;20.31;74.93
77171;BME280;66144;50.020;14.422;2023-07-29T02:27:16;98322.44;;;20.30;75.23
77171;BME280;66144;50.020;14.422;2023-07-29T02:29:41;98330.41;;;20.22;75.51
77171;BME280;66144;50.020;14.422;2023-07-29T02:32:07;98331.34;;;20.26;74.79
77171;BME280;66144;50.020;14.422;2023-07-29T02:34:32;98330.88;;;20.24;75.21
77171;BME280;66144;50.020;14.422;2023-07-29T02:36:58;98332.13;;;20.26;75.30
77171;BME280;66144;50.020;14.422;2023-07-29T02:39:23;98324.03;;;20.23;75.00
77171;BME280;66144;50.020;14.422;2023-07-29T02:41:49;98325.56;;;20.24;74.95
77171;BME280;66144;50.020;14.422;2023-07-29T02:44:15;98323.25;;;20.22;74.74
77171;BME280;66144;50.020;14.422;2023-07-29T02:46:40;98317.50;;;20.20;74.97
77171;BME280;66144;50.020;14.422;2023-07-29T02:49:06;98325.78;;;20.19;75.04
77171;BME280;66144;50.020;14.422;2023-07-29T02:51:31;98323.13;;;20.19;74.98
77171;BME280;66144;50.020;14.422;2023-07-29T02:53:57;98324.22;;;20.18;74.79
77171;BME280;66144;50.020;14.422;2023-07-29T02:56:22;98325.63;;;20.15;74.96
77171;BME280;66144;50.020;14.422;2023-07-29T02:58:48;98325.50;;;20.12;74.30
77171;BME280;66144;50.020;14.422;2023-07-29T03:01:16;98325.34;;;20.08;74.55
77171;BME280;66144;50.020;14.422;2023-07-29T03:03:42;98333.63;;;20.07;75.04
77171;BME280;66144;50.020;14.422;2023-07-29T03:06:10;98327.84;;;20.05;74.89
77171;BME280;66144;50.020;14.422;2023-07-29T03:08:36;98329.88;;;20.08;74.87
77171;BME280;66144;50.020;14.422;2023-07-29T03:11:12;98329.88;;;20.08;74.83
77171;BME280;66144;50.020;14.422;2023-07-29T03:13:38;98335.34;;;20.02;74.64
77171;BME280;66144;50.020;14.422;2023-07-29T03:16:12;98342.66;;;20.06;74.58
77171;BME280;66144;50.020;14.422;2023-07-29T03:18:37;98344.06;;;20.03;74.71
77171;BME280;66144;50.020;14.422;2023-07-29T03:21:03;98347.34;;;20.09;74.46
77171;BME280;66144;50.020;14.422;2023-07-29T03:23:30;98347.66;;;20.07;75.21
77171;BME280;66144;50.020;14.422;2023-07-29T03:25:56;98350.00;;;20.09;74.97
77171;BME280;66144;50.020;14.422;2023-07-29T03:28:27;98349.06;;;20.05;75.57
77171;BME280;66144;50.020;14.422;2023-07-29T03:30:53;98340.31;;;20.04;74.79
77171;BME280;66144;50.020;14.422;2023-07-29T03:33:19;98349.66;;;20.10;74.67
77171;BME280;66144;50.020;14.422;2023-07-29T03:35:47;98349.03;;;20.13;74.83
77171;BME280;66144;50.020;14.422;2023-07-29T03:38:13;98351.06;;;20.16;74.85
77171;BME280;66144;50.020;14.422;2023-07-29T03:40:39;98344.19;;;20.15;75.06
77171;BME280;66144;50.020;14.422;2023-07-29T03:43:04;98342.63;;;20.14;74.74
77171;BME280;66144;50.020;14.422;2023-07-29T03:45:30;98341.88;;;20.14;75.03
77171;BME280;66144;50.020;14.422;2023-07-29T03:47:56;98339.53;;;20.12;74.68
77171;BME280;66144;50.020;14.422;2023-07-29T03:50:21;98341.25;;;20.08;75.37
77171;BME280;66144;50.020;14.422;2023-07-29T03:52:47;98342.97;;;20.13;75.20
77171;BME280;66144;50.020;14.422;2023-07-29T03:55:12;98341.25;;;20.08;75.28
77171;BME280;66144;50.020;14.422;2023-07-29T03:57:38;98337.34;;;20.06;74.87
77171;BME280;66144;50.020;14.422;2023-07-29T04:00:04;98342.03;;;20.09;74.27
77171;BME280;66144;50.020;14.422;2023-07-29T04:02:29;98342.81;;;20.09;74.74
77171;BME280;66144;50.020;14.422;2023-07-29T04:04:55;98347.34;;;20.09;74.56
77171;BME280;66144;50.020;14.422;2023-07-29T04:07:20;98349.25;;;19.99;75.74
77171;BME280;66144;50.020;14.422;2023-07-29T04:09:45;98348.59;;;20.02;75.50
77171;BME280;66144;50.020;14.422;2023-07-29T04:12:11;98350.16;;;20.04;74.86
77171;BME280;66144;50.020;14.422;2023-07-29T04:14:37;98350.63;;;20.06;74.68
77171;BME280;66144;50.020;14.422;2023-07-29T04:17:02;98350.16;;;20.04;75.03
77171;BME280;66144;50.020;14.422;2023-07-29T04:19:27;98355.34;;;20.00;75.24
77171;BME280;66144;50.020;14.422;2023-07-29T04:21:53;98356.75;;;19.97;75.58
77171;BME280;66144;50.020;14.422;2023-07-29T04:24:18;98358.31;;;19.98;74.99
77171;BME280;66144;50.020;14.422;2023-07-29T04:26:45;98362.69;;;19.94;75.14
77171;BME280;66144;50.020;14.422;2023-07-29T04:29:11;98361.91;;;19.94;75.42
77171;BME280;66144;50.020;14.422;2023-07-29T04:31:37;98356.28;;;19.95;75.39
77171;BME280;66144;50.020;14.422;2023-07-29T04:34:03;98349.09;;;19.96;75.43
77171;BME280;66144;50.020;14.422;2023-07-29T04:36:28;98358.16;;;19.95;74.92
77171;BME280;66144;50.020;14.422;2023-07-29T04:38:54;98366.41;;;19.93;74.76
77171;BME280;66144;50.020;14.422;2023-07-29T04:41:19;98355.19;;;19.96;74.88
77171;BME280;66144;50.020;14.422;2023-07-29T04:43:44;98357.53;;;19.98;75.05
77171;BME280;66144;50.020;14.422;2023-07-29T04:46:10;98371.25;;;20.00;75.23
77171;BME280;66144;50.020;14.422;2023-07-29T04:48:35;98366.38;;;20.02;75.24
77171;BME280;66144;50.020;14.422;2023-07-29T04:51:01;98366.72;;;20.00;75.19
77171;BME280;66144;50.020;14.422;2023-07-29T04:53:26;98364.34;;;20.08;75.34
77171;BME280;66144;50.020;14.422;2023-07-29T04:55:51;98367.91;;;20.12;74.91
77171;BME280;66144;50.020;14.422;2023-07-29T04:58:17;98369.31;;;20.18;74.73
77171;BME280;66144;50.020;14.422;2023-07-29T05:00:42;98372.53;;;20.23;74.88
77171;BME280;66144;50.020;14.422;2023-07-29T05:03:08;98357.88;;;20.26;75.25
77171;BME280;66144;50.020;14.422;2023-07-29T05:05:33;98370.03;;;20.27;74.05
77171;BME280;66144;50.020;14.422;2023-07-29T05:07:58;98374.06;;;20.33;73.78
77171;BME280;66144;50.020;14.422;2023-07-29T05:10:24;98368.38;;;20.52;73.55
77171;BME280;66144;50.020;14.422;2023-07-29T05:12:50;98367.13;;;20.79;72.79
77171;BME280;66144;50.020;14.422;2023-07-29T05:15:15;98370.06;;;21.07;71.35
77171;BME280;66144;50.020;14.422;2023-07-29T05:17:40;98361.97;;;21.57;69.73
77171;BME280;66144;50.020;14.422;2023-07-29T05:20:06;98359.78;;;22.04;68.11
77171;BME280;66144;50.020;14.422;2023-07-29T05:22:32;98355.56;;;22.52;66.57
77171;BME280;66144;50.020;14.422;2023-07-29T05:24:57;98362.19;;;23.06;65.33
77171;BME280;66144;50.020;14.422;2023-07-29T05:27:23;98363.75;;;23.51;64.50
77171;BME280;66144;50.020;14.422;2023-07-29T05:29:48;98362.81;;;23.87;62.29
77171;BME280;66144;50.020;14.422;2023-07-29T05:32:14;98364.03;;;24.05;61.53
77171;BME280;66144;50.020;14.422;2023-07-29T05:34:40;98363.00;;;23.94;61.47
77171;BME280;66144;50.020;14.422;2023-07-29T05:37:06;98365.94;;;24.05;60.88
77171;BME280;66144;50.020;14.422;2023-07-29T05:39:31;98364.09;;;23.77;61.52
77171;BME280;66144;50.020;14.422;2023-07-29T05:41:58;98366.59;;;23.86;61.30
77171;BME280;66144;50.020;14.422;2023-07-29T05:44:24;98357.75;;;23.82;61.44
77171;BME280;66144;50.020;14.422;2023-07-29T05:46:49;98368.59;;;23.89;61.26
77171;BME280;66144;50.020;14.422;2023-07-29T05:49:14;98369.72;;;24.20;60.76
77171;BME280;66144;50.020;14.422;2023-07-29T05:51:40;98366.66;;;24.68;59.29
77171;BME280;66144;50.020;14.422;2023-07-29T05:54:05;98363.75;;;24.58;59.18
77171;BME280;66144;50.020;14.422;2023-07-29T05:56:32;98350.72;;;24.91;57.94
77171;BME280;66144;50.020;14.422;2023-07-29T05:58:58;98362.88;;;24.89;58.65
77171;BME280;66144;50.020;14.422;2023-07-29T06:01:24;98352.59;;;25.06;57.69
77171;BME280;66144;50.020;14.422;2023-07-29T06:03:50;98359.72;;;25.18;57.10
77171;BME280;66144;50.020;14.422;2023-07-29T06:06:16;98356.31;;;25.40;57.41
77171;BME280;66144;50.020;14.422;2023-07-29T06:08:41;98360.25;;;25.66;56.82
77171;BME280;66144;50.020;14.422;2023-07-29T06:11:06;98352.44;;;25.80;56.11
77171;BME280;66144;50.020;14.422;2023-07-29T06:13:32;98353.75;;;25.67;56.36
77171;BME280;66144;50.020;14.422;2023-07-29T06:15:58;98357.56;;;25.66;56.19
77171;BME280;66144;50.020;14.422;2023-07-29T06:18:25;98349.25;;;25.71;56.77
77171;BME280;66144;50.020;14.422;2023-07-29T06:20:51;98354.34;;;25.57;56.22
77171;BME280;66144;50.020;14.422;2023-07-29T06:23:16;98357.59;;;25.08;57.11
77171;BME280;66144;50.020;14.422;2023-07-29T06:25:42;98351.34;;;25.20;56.38
77171;BME280;66144;50.020;14.422;2023-07-29T06:28:09;98340.16;;;25.14;57.35
77171;BME280;66144;50.020;14.422;2023-07-29T06:30:34;98340.94;;;25.76;55.39
77171;BME280;66144;50.020;14.422;2023-07-29T06:33:00;98344.19;;;26.11;55.43
77171;BME280;66144;50.020;14.422;2023-07-29T06:35:25;98337.25;;;25.84;54.73
77171;BME280;66144;50.020;14.422;2023-07-29T06:37:51;98344.75;;;26.24;55.14
77171;BME280;66144;50.020;14.422;2023-07-29T06:40:16;98348.50;;;26.20;54.64
77171;BME280;66144;50.020;14.422;2023-07-29T06:42:41;98345.31;;;26.10;54.37
77171;BME280;66144;50.020;14.422;2023-07-29T06:45:07;98340.91;;;26.22;54.13
77171;BME280;66144;50.020;14.422;2023-07-29T06:47:33;98342.06;;;26.47;53.18
77171;BME280;66144;50.020;14.422;2023-07-29T06:49:58;98339.22;;;26.63;53.06
77171;BME280;66144;50.020;14.422;2023-07-29T06:52:24;98354.09;;;26.87;52.22
77171;BME280;66144;50.020;14.422;2023-07-29T06:54:49;98352.69;;;27.26;52.08
77171;BME280;66144;50.020;14.422;2023-07-29T06:57:15;98348.25;;;27.78;49.87
77171;BME280;66144;50.020;14.422;2023-07-29T06:59:40;98358.53;;;28.16;48.41
77171;BME280;66144;50.020;14.422;2023-07-29T07:02:06;98348.94;;;28.15;48.86
77171;BME280;66144;50.020;14.422;2023-07-29T07:04:32;98352.75;;;27.67;49.54
77171;BME280;66144;50.020;14.422;2023-07-29T07:06:57;98352.50;;;27.45;50.78
77171;BME280;66144;50.020;14.422;2023-07-29T07:09:22;98352.13;;;27.13;51.37
77171;BME280;66144;50.020;14.422;2023-07-29T07:11:48;98347.69;;;26.95;52.56
77171;BME280;66144;50.020;14.422;2023-07-29T07:14:13;98338.41;;;26.59;52.38
77171;BME280;66144;50.020;14.422;2023-07-29T07:16:39;98341.16;;;26.92;52.24
77171;BME280;66144;50.020;14.422;2023-07-29T07:19:05;98339.28;;;27.26;50.53
77171;BME280;66144;50.020;14.422;2023-07-29T07:21:30;98341.31;;;27.40;51.08
77171;BME280;66144;50.020;14.422;2023-07-29T07:23:57;98336.09;;;27.54;49.73
77171;BME280;66144;50.020;14.422;2023-07-29T07:26:23;98343.44;;;27.57;51.06
77171;BME280;66144;50.020;14.422;2023-07-29T07:28:48;98335.69;;;27.48;49.74
77171;BME280;66144;50.020;14.422;2023-07-29T07:31:14;98334.56;;;27.90;49.22
77171;BME280;66144;50.020;14.422;2023-07-29T07:33:41;98329.53;;;27.11;49.57
77171;BME280;66144;50.020;14.422;2023-07-29T07:36:07;98330.69;;;27.13;50.87
77171;BME280;66144;50.020;14.422;2023-07-29T07:38:32;98329.97;;;26.87;51.66
77171;BME280;66144;50.020;14.422;2023-07-29T07:40:57;98324.91;;;26.81;52.42
77171;BME280;66144;50.020;14.422;2023-07-29T07:43:24;98329.19;;;26.30;52.62
77171;BME280;66144;50.020;14.422;2023-07-29T07:45:49;98329.34;;;26.17;53.21
77171;BME280;66144;50.020;14.422;2023-07-29T07:48:15;98327.84;;;26.17;53.25
77171;BME280;66144;50.020;14.422;2023-07-29T07:50:42;98321.31;;;25.91;53.47
77171;BME280;66144;50.020;14.422;2023-07-29T07:53:10;98309.59;;;26.26;53.82
77171;BME280;66144;50.020;14.422;2023-07-29T07:55:36;98305.56;;;26.65;52.31
77171;BME280;66144;50.020;14.422;2023-07-29T07:58:04;98296.03;;;26.98;51.13
77171;BME280;66144;50.020;14.422;2023-07-29T08:00:29;98308.88;;;26.85;50.89
77171;BME280;66144;50.020;14.422;2023-07-29T08:02:55;98299.53;;;27.02;51.24
77171;BME280;66144;50.020;14.422;2023-07-29T08:05:20;98306.88;;;26.78;51.28
77171;BME280;66144;50.020;14.422;2023-07-29T08:07:46;98299.34;;;26.88;51.69
77171;BME280;66144;50.020;14.422;2023-07-29T08:10:11;98296.59;;;26.51;51.05
77171;BME280;66144;50.020;14.422;2023-07-29T08:12:36;98293.41;;;26.71;51.17
77171;BME280;66144;50.020;14.422;2023-07-29T08:15:02;98291.91;;;27.04;50.30
77171;BME280;66144;50.020;14.422;2023-07-29T08:17:29;98276.50;;;28.23;49.09
77171;BME280;66144;50.020;14.422;2023-07-29T08:19:56;98277.19;;;28.81;45.22
77171;BME280;66144;50.020;14.422;2023-07-29T08:22:23;98279.22;;;29.31;43.35
77171;BME280;66144;50.020;14.422;2023-07-29T08:24:48;98270.06;;;29.49;42.47
77171;BME280;66144;50.020;14.422;2023-07-29T08:27:13;98284.22;;;29.29;43.07
77171;BME280;66144;50.020;14.422;2023-07-29T08:29:39;98286.88;;;29.07;43.26
77171;BME280;66144;50.020;14.422;2023-07-29T08:32:05;98286.41;;;28.87;43.72
77171;BME280;66144;50.020;14.422;2023-07-29T08:34:30;98281.88;;;29.02;43.46
77171;BME280;66144;50.020;14.422;2023-07-29T08:36:56;98284.19;;;29.04;43.64
77171;BME280;66144;50.020;14.422;2023-07-29T08:39:21;98275.34;;;29.10;43.58
77171;BME280;66144;50.020;14.422;2023-07-29T08:42:01;98287.84;;;28.71;43.91
77171;BME280;66144;50.020;14.422;2023-07-29T08:44:35;98286.97;;;28.42;44.92
77171;BME280;66144;50.020;14.422;2023-07-29T08:47:02;98295.72;;;28.28;45.33
77171;BME280;66144;50.020;14.422;2023-07-29T08:49:28;98294.03;;;28.13;45.50
77171;BME280;66144;50.020;14.422;2023-07-29T08:51:57;98295.56;;;28.10;45.96
77171;BME280;66144;50.020;14.422;2023-07-29T08:54:22;98291.47;;;27.76;46.38
77171;BME280;66144;50.020;14.422;2023-07-29T08:56:48;98289.03;;;27.60;46.94
77171;BME280;66144;50.020;14.422;2023-07-29T08:59:14;98289.09;;;27.27;47.37
77171;BME280;66144;50.020;14.422;2023-07-29T09:01:43;98289.78;;;27.57;48.80
77171;BME280;66144;50.020;14.422;2023-07-29T09:04:14;98285.97;;;27.62;47.28
77171;BME280;66144;50.020;14.422;2023-07-29T09:06:43;98285.94;;;27.58;47.28
77171;BME280;66144;50.020;14.422;2023-07-29T09:09:14;98281.28;;;27.55;47.76
77171;BME280;66144;50.020;14.422;2023-07-29T09:11:41;98280.84;;;27.46;48.03
77171;BME280;66144;50.020;14.422;2023-07-29T09:14:10;98281.06;;;27.30;47.85
77171;BME280;66144;50.020;14.422;2023-07-29T09:16:37;98273.19;;;27.07;47.17
77171;BME280;66144;50.020;14.422;2023-07-29T09:19:06;98283.81;;;27.37;47.72
77171;BME280;66144;50.020;14.422;2023-07-29T09:21:32;98280.81;;;27.42;47.66
77171;BME280;66144;50.020;14.422;2023-07-29T09:24:03;98287.91;;;27.61;47.37
77171;BME280;66144;50.020;14.422;2023-07-29T09:26:33;98282.28;;;27.77;46.33
77171;BME280;66144;50.020;14.422;2023-07-29T09:28:59;98279.19;;;28.30;46.65
77171;BME280;66144;50.020;14.422;2023-07-29T09:31:26;98278.84;;;28.28;45.29
77171;BME280;66144;50.020;14.422;2023-07-29T09:34:00;98281.97;;;28.40;46.79
77171;BME280;66144;50.020;14.422;2023-07-29T09:36:26;98288.84;;;28.38;45.02
77171;BME280;66144;50.020;14.422;2023-07-29T09:38:56;98288.66;;;28.75;44.41
77171;BME280;66144;50.020;14.422;2023-07-29T09:41:26;98281.94;;;29.34;43.92
77171;BME280;66144;50.020;14.422;2023-07-29T09:44:04;98280.81;;;30.28;42.08
77171;BME280;66144;50.020;14.422;2023-07-29T09:46:35;98275.78;;;31.31;40.21
77171;BME280;66144;50.020;14.422;2023-07-29T09:49:05;98283.69;;;30.94;39.06
77171;BME280;66144;50.020;14.422;2023-07-29T09:51:31;98278.44;;;30.51;40.52
77171;BME280;66144;50.020;14.422;2023-07-29T09:53:57;98287.50;;;31.00;38.93
77171;BME280;66144;50.020;14.422;2023-07-29T09:56:26;98286.72;;;31.03;39.51
77171;BME280;66144;50.020;14.422;2023-07-29T09:58:52;98283.09;;;30.29;39.76
77171;BME280;66144;50.020;14.422;2023-07-29T10:01:18;98289.66;;;30.35;39.70
77171;BME280;66144;50.020;14.422;2023-07-29T10:03:44;98289.28;;;30.26;38.99
77171;BME280;66144;50.020;14.422;2023-07-29T10:06:10;98283.44;;;30.49;39.05
77171;BME280;66144;50.020;14.422;2023-07-29T10:08:36;98278.78;;;30.67;39.42
77171;BME280;66144;50.020;14.422;2023-07-29T10:11:08;98283.91;;;30.15;39.08
77171;BME280;66144;50.020;14.422;2023-07-29T10:13:34;98275.41;;;30.24;40.16
77171;BME280;66144;50.020;14.422;2023-07-29T10:16:00;98270.78;;;30.35;39.71
77171;BME280;66144;50.020;14.422;2023-07-29T10:18:29;98269.66;;;30.18;40.42
77171;BME280;66144;50.020;14.422;2023-07-29T10:20:57;98255.44;;;30.14;40.35
77171;BME280;66144;50.020;14.422;2023-07-29T10:23:25;98255.44;;;29.86;41.30
77171;BME280;66144;50.020;14.422;2023-07-29T10:25:57;98255.38;;;29.26;41.98
77171;BME280;66144;50.020;14.422;2023-07-29T10:28:29;98250.00;;;29.15;41.75
77171;BME280;66144;50.020;14.422;2023-07-29T10:30:56;98248.44;;;29.03;42.35
77171;BME280;66144;50.020;14.422;2023-07-29T10:33:21;98253.00;;;28.81;43.53
77171;BME280;66144;50.020;14.422;2023-07-29T10:35:47;98247.53;;;28.67;43.34
77171;BME280;66144;50.020;14.422;2023-07-29T10:38:12;98244.94;;;28.92;43.35
77171;BME280;66144;50.020;14.422;2023-07-29T10:40:57;98229.97;;;28.91;42.78
77171;BME280;66144;50.020;14.422;2023-07-29T10:46:15;98221.56;;;29.21;43.42
77171;BME280;66144;50.020;14.422;2023-07-29T10:48:53;98228.91;;;29.38;41.66
77171;BME280;66144;50.020;14.422;2023-07-29T10:53:59;98229.97;;;28.95;43.09
77171;BME280;66144;50.020;14.422;2023-07-29T10:56:33;98223.41;;;28.81;43.57
77171;BME280;66144;50.020;14.422;2023-07-29T10:59:22;98223.31;;;28.67;43.57
77171;BME280;66144;50.020;14.422;2023-07-29T11:01:57;98224.31;;;28.31;43.40
77171;BME280;66144;50.020;14.422;2023-07-29T11:04:46;98225.06;;;28.21;43.75
77171;BME280;66144;50.020;14.422;2023-07-29T11:09:57;98224.13;;;27.99;46.12
77171;BME280;66144;50.020;14.422;2023-07-29T11:15:12;98278.28;;;26.56;52.10
77171;BME280;66144;50.020;14.422;2023-07-29T11:20:11;98297.50;;;25.02;54.51
77171;BME280;66144;50.020;14.422;2023-07-29T11:22:38;98291.53;;;25.08;59.92
77171;BME280;66144;50.020;14.422;2023-07-29T11:25:04;98296.34;;;24.64;60.03
77171;BME280;66144;50.020;14.422;2023-07-29T11:27:32;98299.41;;;24.47;60.82
77171;BME280;66144;50.020;14.422;2023-07-29T11:29:59;98315.06;;;24.29;62.47
77171;BME280;66144;50.020;14.422;2023-07-29T11:32:25;98326.94;;;23.85;64.18
77171;BME280;66144;50.020;14.422;2023-07-29T11:34:51;98326.56;;;23.27;66.33
77171;BME280;66144;50.020;14.422;2023-07-29T11:37:16;98321.78;;;23.48;67.15
77171;BME280;66144;50.020;14.422;2023-07-29T11:39:43;98326.28;;;23.16;68.96
77171;BME280;66144;50.020;14.422;2023-07-29T11:42:13;98327.47;;;22.91;71.14
77171;BME280;66144;50.020;14.422;2023-07-29T11:44:39;98339.25;;;22.53;68.73
77171;BME280;66144;50.020;14.422;2023-07-29T11:47:11;98322.31;;;22.46;69.13
77171;BME280;66144;50.020;14.422;2023-07-29T11:49:40;98306.91;;;22.15;69.31
77171;BME280;66144;50.020;14.422;2023-07-29T11:52:10;98295.41;;;22.11;71.06
77171;BME280;66144;50.020;14.422;2023-07-29T11:54:37;98305.09;;;21.82;70.53
77171;BME280;66144;50.020;14.422;2023-07-29T11:57:07;98290.69;;;21.71;70.27
77171;BME280;66144;50.020;14.422;2023-07-29T11:59:34;98281.19;;;21.82;70.45
77171;BME280;66144;50.020;14.422;2023-07-29T12:02:11;98282.47;;;21.52;70.22
77171;BME280;66144;50.020;14.422;2023-07-29T12:04:38;98278.72;;;21.53;70.08
77171;BME280;66144;50.020;14.422;2023-07-29T12:07:04;98274.97;;;21.66;70.22
77171;BME280;66144;50.020;14.422;2023-07-29T12:09:30;98278.03;;;21.44;69.34
77171;BME280;66144;50.020;14.422;2023-07-29T12:11:56;98275.16;;;21.49;70.50
77171;BME280;66144;50.020;14.422;2023-07-29T12:14:21;98285.97;;;21.31;71.05
77171;BME280;66144;50.020;14.422;2023-07-29T12:16:50;98275.78;;;21.33;72.24
77171;BME280;66144;50.020;14.422;2023-07-29T12:19:17;98275.78;;;21.33;72.61
77171;BME280;66144;50.020;14.422;2023-07-29T12:21:43;98266.09;;;21.50;70.20
77171;BME280;66144;50.020;14.422;2023-07-29T12:24:09;98257.97;;;21.46;70.45
77171;BME280;66144;50.020;14.422;2023-07-29T12:26:38;98269.97;;;21.52;70.55
77171;BME280;66144;50.020;14.422;2023-07-29T12:29:13;98264.31;;;21.54;72.54
77171;BME280;66144;50.020;14.422;2023-07-29T12:31:39;98262.97;;;21.60;70.42
77171;BME280;66144;50.020;14.422;2023-07-29T12:34:05;98263.22;;;21.55;70.50
77171;BME280;66144;50.020;14.422;2023-07-29T12:36:43;98257.25;;;21.70;71.37
77171;BME280;66144;50.020;14.422;2023-07-29T12:39:29;98264.97;;;21.75;70.23
77171;BME280;66144;50.020;14.422;2023-07-29T12:41:57;98258.69;;;21.80;71.38
77171;BME280;66144;50.020;14.422;2023-07-29T12:44:23;98246.72;;;21.98;70.56
77171;BME280;66144;50.020;14.422;2023-07-29T12:46:49;98247.28;;;21.91;68.70
77171;BME280;66144;50.020;14.422;2023-07-29T12:49:15;98247.19;;;22.00;69.58
77171;BME280;66144;50.020;14.422;2023-07-29T12:51:40;98245.50;;;22.20;69.53
77171;BME280;66144;50.020;14.422;2023-07-29T12:54:06;98256.06;;;22.04;69.73
77171;BME280;66144;50.020;14.422;2023-07-29T12:56:32;98251.59;;;22.20;71.17
77171;BME280;66144;50.020;14.422;2023-07-29T12:58:58;98253.72;;;22.15;69.53
77171;BME280;66144;50.020;14.422;2023-07-29T13:01:25;98244.38;;;22.33;71.29
77171;BME280;66144;50.020;14.422;2023-07-29T13:03:50;98254.34;;;22.36;69.38